Sakarya, Turkey
Current Conditions -  °F | °C
As of 5:50 PM on Saturday 25 Oct 2014 (Local Time) from LTBQ Reporting Station
Scattered Clouds Scattered Clouds  
Wind Chill: 59°   Ceiling: Unl
Heat Index: 59°   Visibility: 6mi
Dew Point: 55°   Wind: 2mph
Humidity: 88%   Direction: NA
Pressure: 29.88"   Gusts: NA
Location:  40.75°N, 30.45°E
Report Text: LTBQ 251450Z VRB02KT 9999 SCT030 SCT090 15/13 Q1012 NOSIG
Loading
Personal Weather Stations






























Interactive Weather Map
Tropical Storm Tracking
New forecast layout! Learn more

10-Day Weather Forecast

Advertisements
Track Severe Weather on mobile